sensor_id;sensor_type;location;lat;lon;timestamp;temperature;humidity
53272;DHT22;39160;48.580;7.756;2023-07-09T00:00:54;29.80;62.90
53272;DHT22;39160;48.580;7.756;2023-07-09T00:05:47;29.70;63.00
53272;DHT22;39160;48.580;7.756;2023-07-09T00:10:38;29.50;63.00
53272;DHT22;39160;48.580;7.756;2023-07-09T00:15:29;29.40;63.20
53272;DHT22;39160;48.580;7.756;2023-07-09T00:20:19;29.30;63.40
53272;DHT22;39160;48.580;7.756;2023-07-09T00:25:10;29.20;63.60
53272;DHT22;39160;48.580;7.756;2023-07-09T00:30:14;29.20;63.90
53272;DHT22;39160;48.580;7.756;2023-07-09T00:35:06;29.30;64.00
53272;DHT22;39160;48.580;7.756;2023-07-09T00:39:57;29.20;64.10
53272;DHT22;39160;48.580;7.756;2023-07-09T00:44:51;29.20;64.30
53272;DHT22;39160;48.580;7.756;2023-07-09T00:49:42;29.00;64.50
53272;DHT22;39160;48.580;7.756;2023-07-09T00:54:39;28.80;64.70
53272;DHT22;39160;48.580;7.756;2023-07-09T00:59:32;28.90;64.90
53272;DHT22;39160;48.580;7.756;2023-07-09T01:04:23;28.90;65.00
53272;DHT22;39160;48.580;7.756;2023-07-09T01:09:15;28.70;65.30
53272;DHT22;39160;48.580;7.756;2023-07-09T01:14:10;28.70;65.50
53272;DHT22;39160;48.580;7.756;2023-07-09T01:19:01;28.40;65.60
53272;DHT22;39160;48.580;7.756;2023-07-09T01:23:52;28.20;65.90
53272;DHT22;39160;48.580;7.756;2023-07-09T01:28:43;28.20;66.20
53272;DHT22;39160;48.580;7.756;2023-07-09T01:33:34;28.10;66.20
53272;DHT22;39160;48.580;7.756;2023-07-09T01:38:25;28.20;66.20
53272;DHT22;39160;48.580;7.756;2023-07-09T01:43:20;28.10;66.40
53272;DHT22;39160;48.580;7.756;2023-07-09T01:48:11;28.20;66.50
53272;DHT22;39160;48.580;7.756;2023-07-09T01:53:05;28.00;66.50
53272;DHT22;39160;48.580;7.756;2023-07-09T01:57:59;27.90;66.80
53272;DHT22;39160;48.580;7.756;2023-07-09T02:02:49;27.90;67.10
53272;DHT22;39160;48.580;7.756;2023-07-09T02:07:40;27.90;67.30
53272;DHT22;39160;48.580;7.756;2023-07-09T02:12:31;27.80;67.40
53272;DHT22;39160;48.580;7.756;2023-07-09T02:17:22;27.80;67.40
53272;DHT22;39160;48.580;7.756;2023-07-09T02:22:12;27.80;67.60
53272;DHT22;39160;48.580;7.756;2023-07-09T02:27:05;27.60;67.90
53272;DHT22;39160;48.580;7.756;2023-07-09T02:31:58;27.60;68.10
53272;DHT22;39160;48.580;7.756;2023-07-09T02:36:49;27.50;68.40
53272;DHT22;39160;48.580;7.756;2023-07-09T02:41:40;27.50;68.60
53272;DHT22;39160;48.580;7.756;2023-07-09T02:46:31;27.40;68.70
53272;DHT22;39160;48.580;7.756;2023-07-09T02:51:21;27.20;69.00
53272;DHT22;39160;48.580;7.756;2023-07-09T02:56:12;27.00;69.50
53272;DHT22;39160;48.580;7.756;2023-07-09T03:01:03;26.90;69.60
53272;DHT22;39160;48.580;7.756;2023-07-09T03:05:54;26.80;69.90
53272;DHT22;39160;48.580;7.756;2023-07-09T03:10:44;26.80;70.70
53272;DHT22;39160;48.580;7.756;2023-07-09T03:15:35;26.70;70.20
53272;DHT22;39160;48.580;7.756;2023-07-09T03:20:26;26.70;70.40
53272;DHT22;39160;48.580;7.756;2023-07-09T03:25:16;26.50;70.70
53272;DHT22;39160;48.580;7.756;2023-07-09T03:30:07;26.40;71.00
53272;DHT22;39160;48.580;7.756;2023-07-09T03:34:58;26.50;71.30
53272;DHT22;39160;48.580;7.756;2023-07-09T03:39:48;26.50;71.30
53272;DHT22;39160;48.580;7.756;2023-07-09T03:44:39;26.50;71.70
53272;DHT22;39160;48.580;7.756;2023-07-09T03:49:30;26.30;72.00
53272;DHT22;39160;48.580;7.756;2023-07-09T03:54:21;26.20;72.10
53272;DHT22;39160;48.580;7.756;2023-07-09T03:59:12;25.90;72.80
53272;DHT22;39160;48.580;7.756;2023-07-09T04:04:02;25.90;73.20
53272;DHT22;39160;48.580;7.756;2023-07-09T04:08:53;25.90;73.30
53272;DHT22;39160;48.580;7.756;2023-07-09T04:13:44;26.00;73.50
53272;DHT22;39160;48.580;7.756;2023-07-09T04:18:34;26.10;73.60
53272;DHT22;39160;48.580;7.756;2023-07-09T04:23:26;26.20;73.60
53272;DHT22;39160;48.580;7.756;2023-07-09T04:28:17;26.10;73.90
53272;DHT22;39160;48.580;7.756;2023-07-09T04:33:07;26.20;74.00
53272;DHT22;39160;48.580;7.756;2023-07-09T04:37:59;26.30;74.00
53272;DHT22;39160;48.580;7.756;2023-07-09T04:42:50;26.20;74.20
53272;DHT22;39160;48.580;7.756;2023-07-09T04:47:41;26.20;74.40
53272;DHT22;39160;48.580;7.756;2023-07-09T04:52:31;26.20;74.40
53272;DHT22;39160;48.580;7.756;2023-07-09T04:57:22;26.20;74.50
53272;DHT22;39160;48.580;7.756;2023-07-09T05:02:13;26.10;74.60
53272;DHT22;39160;48.580;7.756;2023-07-09T05:07:04;26.20;74.70
53272;DHT22;39160;48.580;7.756;2023-07-09T05:11:54;26.20;74.50
53272;DHT22;39160;48.580;7.756;2023-07-09T05:16:45;26.10;74.70
53272;DHT22;39160;48.580;7.756;2023-07-09T05:21:36;26.20;74.80
53272;DHT22;39160;48.580;7.756;2023-07-09T05:26:26;26.30;74.70
53272;DHT22;39160;48.580;7.756;2023-07-09T05:31:17;26.40;74.80
53272;DHT22;39160;48.580;7.756;2023-07-09T05:36:09;26.50;74.70
53272;DHT22;39160;48.580;7.756;2023-07-09T05:41:05;26.40;74.90
53272;DHT22;39160;48.580;7.756;2023-07-09T05:45:58;26.30;75.10
53272;DHT22;39160;48.580;7.756;2023-07-09T05:50:52;26.30;75.30
53272;DHT22;39160;48.580;7.756;2023-07-09T05:55:43;26.10;75.50
53272;DHT22;39160;48.580;7.756;2023-07-09T06:00:33;26.20;75.50
53272;DHT22;39160;48.580;7.756;2023-07-09T06:05:25;26.30;75.60
53272;DHT22;39160;48.580;7.756;2023-07-09T06:10:16;26.30;75.50
53272;DHT22;39160;48.580;7.756;2023-07-09T06:15:07;26.60;75.30
53272;DHT22;39160;48.580;7.756;2023-07-09T06:19:58;26.60;75.30
53272;DHT22;39160;48.580;7.756;2023-07-09T06:24:48;26.70;75.20
53272;DHT22;39160;48.580;7.756;2023-07-09T06:29:39;26.80;75.50
53272;DHT22;39160;48.580;7.756;2023-07-09T06:34:30;27.00;75.30
53272;DHT22;39160;48.580;7.756;2023-07-09T06:39:20;27.00;75.30
53272;DHT22;39160;48.580;7.756;2023-07-09T06:44:11;26.90;75.50
53272;DHT22;39160;48.580;7.756;2023-07-09T06:49:02;27.00;75.50
53272;DHT22;39160;48.580;7.756;2023-07-09T06:53:53;27.10;75.40
53272;DHT22;39160;48.580;7.756;2023-07-09T06:58:44;27.30;75.40
53272;DHT22;39160;48.580;7.756;2023-07-09T07:03:37;27.40;75.30
53272;DHT22;39160;48.580;7.756;2023-07-09T07:08:27;27.60;75.20
53272;DHT22;39160;48.580;7.756;2023-07-09T07:13:19;27.70;75.10
53272;DHT22;39160;48.580;7.756;2023-07-09T07:18:09;27.70;75.10
53272;DHT22;39160;48.580;7.756;2023-07-09T07:23:00;27.80;75.00
53272;DHT22;39160;48.580;7.756;2023-07-09T07:27:51;27.80;74.80
53272;DHT22;39160;48.580;7.756;2023-07-09T07:32:46;27.80;74.70
53272;DHT22;39160;48.580;7.756;2023-07-09T07:37:38;28.10;74.50
53272;DHT22;39160;48.580;7.756;2023-07-09T07:42:28;28.20;74.50
53272;DHT22;39160;48.580;7.756;2023-07-09T07:47:19;28.30;74.60
53272;DHT22;39160;48.580;7.756;2023-07-09T07:52:10;28.30;74.60
53272;DHT22;39160;48.580;7.756;2023-07-09T07:57:01;28.40;74.40
53272;DHT22;39160;48.580;7.756;2023-07-09T08:01:51;28.50;74.50
53272;DHT22;39160;48.580;7.756;2023-07-09T08:06:42;28.60;74.40
53272;DHT22;39160;48.580;7.756;2023-07-09T08:11:32;28.70;74.30
53272;DHT22;39160;48.580;7.756;2023-07-09T08:16:23;28.80;74.20
53272;DHT22;39160;48.580;7.756;2023-07-09T08:21:14;28.90;74.00
53272;DHT22;39160;48.580;7.756;2023-07-09T08:26:04;29.10;73.70
53272;DHT22;39160;48.580;7.756;2023-07-09T08:30:55;29.20;73.50
53272;DHT22;39160;48.580;7.756;2023-07-09T08:35:49;29.30;73.30
53272;DHT22;39160;48.580;7.756;2023-07-09T08:40:40;29.50;73.10
53272;DHT22;39160;48.580;7.756;2023-07-09T08:50:38;29.80;72.50
53272;DHT22;39160;48.580;7.756;2023-07-09T08:55:31;29.90;72.10
53272;DHT22;39160;48.580;7.756;2023-07-09T09:00:34;30.10;71.70
53272;DHT22;39160;48.580;7.756;2023-07-09T09:05:31;30.20;71.40
53272;DHT22;39160;48.580;7.756;2023-07-09T09:10:46;30.30;71.10
53272;DHT22;39160;48.580;7.756;2023-07-09T09:15:40;30.60;70.70
53272;DHT22;39160;48.580;7.756;2023-07-09T09:20:32;30.50;70.60
53272;DHT22;39160;48.580;7.756;2023-07-09T09:25:31;30.70;70.30
53272;DHT22;39160;48.580;7.756;2023-07-09T09:30:24;31.00;69.90
53272;DHT22;39160;48.580;7.756;2023-07-09T09:35:17;31.20;69.50
53272;DHT22;39160;48.580;7.756;2023-07-09T09:40:09;31.40;69.10
53272;DHT22;39160;48.580;7.756;2023-07-09T09:45:00;31.50;68.90
53272;DHT22;39160;48.580;7.756;2023-07-09T09:49:52;31.60;68.70
53272;DHT22;39160;48.580;7.756;2023-07-09T09:55:10;31.70;68.30
53272;DHT22;39160;48.580;7.756;2023-07-09T10:00:01;31.90;67.50
53272;DHT22;39160;48.580;7.756;2023-07-09T10:04:52;31.90;67.30
53272;DHT22;39160;48.580;7.756;2023-07-09T10:09:53;31.90;67.10
53272;DHT22;39160;48.580;7.756;2023-07-09T10:15:01;32.20;66.50
53272;DHT22;39160;48.580;7.756;2023-07-09T10:25:48;32.60;65.40
53272;DHT22;39160;48.580;7.756;2023-07-09T10:30:54;32.70;65.00
53272;DHT22;39160;48.580;7.756;2023-07-09T10:40:53;33.00;63.70
53272;DHT22;39160;48.580;7.756;2023-07-09T10:45:48;33.10;63.10
53272;DHT22;39160;48.580;7.756;2023-07-09T10:50:46;33.50;62.60
53272;DHT22;39160;48.580;7.756;2023-07-09T10:55:44;33.80;61.90
53272;DHT22;39160;48.580;7.756;2023-07-09T11:00:39;34.10;61.10
53272;DHT22;39160;48.580;7.756;2023-07-09T11:05:31;34.30;60.30
53272;DHT22;39160;48.580;7.756;2023-07-09T11:10:36;34.70;59.70
53272;DHT22;39160;48.580;7.756;2023-07-09T11:15:36;35.00;58.70
53272;DHT22;39160;48.580;7.756;2023-07-09T11:20:33;35.20;58.40
53272;DHT22;39160;48.580;7.756;2023-07-09T11:25:40;35.40;57.90
53272;DHT22;39160;48.580;7.756;2023-07-09T11:30:32;35.60;57.50
53272;DHT22;39160;48.580;7.756;2023-07-09T11:35:28;35.70;57.20
53272;DHT22;39160;48.580;7.756;2023-07-09T11:40:20;35.70;57.00
53272;DHT22;39160;48.580;7.756;2023-07-09T11:45:12;36.00;56.70
53272;DHT22;39160;48.580;7.756;2023-07-09T11:50:16;36.20;56.20
53272;DHT22;39160;48.580;7.756;2023-07-09T11:55:21;36.40;56.30
53272;DHT22;39160;48.580;7.756;2023-07-09T12:00:14;36.50;55.90
53272;DHT22;39160;48.580;7.756;2023-07-09T12:05:05;36.50;55.50
53272;DHT22;39160;48.580;7.756;2023-07-09T12:09:56;36.80;55.80
53272;DHT22;39160;48.580;7.756;2023-07-09T12:14:48;36.70;55.50
53272;DHT22;39160;48.580;7.756;2023-07-09T12:19:39;37.00;55.10
53272;DHT22;39160;48.580;7.756;2023-07-09T12:24:36;37.30;54.80
53272;DHT22;39160;48.580;7.756;2023-07-09T12:29:29;37.30;54.60
53272;DHT22;39160;48.580;7.756;2023-07-09T12:34:20;37.10;54.60
53272;DHT22;39160;48.580;7.756;2023-07-09T12:39:11;37.20;54.40
53272;DHT22;39160;48.580;7.756;2023-07-09T12:44:03;37.50;54.10
53272;DHT22;39160;48.580;7.756;2023-07-09T12:48:55;38.10;53.90
53272;DHT22;39160;48.580;7.756;2023-07-09T12:53:47;38.60;53.60
53272;DHT22;39160;48.580;7.756;2023-07-09T12:58:38;38.70;53.10
53272;DHT22;39160;48.580;7.756;2023-07-09T13:03:30;39.40;52.60
53272;DHT22;39160;48.580;7.756;2023-07-09T13:08:21;40.30;52.60
53272;DHT22;39160;48.580;7.756;2023-07-09T13:13:13;41.50;51.50
53272;DHT22;39160;48.580;7.756;2023-07-09T13:18:06;41.20;50.50
53272;DHT22;39160;48.580;7.756;2023-07-09T13:22:57;40.80;50.20
53272;DHT22;39160;48.580;7.756;2023-07-09T13:27:48;41.10;49.40
53272;DHT22;39160;48.580;7.756;2023-07-09T13:32:39;42.00;48.60
53272;DHT22;39160;48.580;7.756;2023-07-09T13:37:29;41.20;48.50
53272;DHT22;39160;48.580;7.756;2023-07-09T13:42:20;40.10;48.20
53272;DHT22;39160;48.580;7.756;2023-07-09T13:47:16;39.10;48.60
53272;DHT22;39160;48.580;7.756;2023-07-09T13:52:17;38.40;48.60
53272;DHT22;39160;48.580;7.756;2023-07-09T13:57:13;38.10;48.60
53272;DHT22;39160;48.580;7.756;2023-07-09T14:02:21;37.70;48.80
53272;DHT22;39160;48.580;7.756;2023-07-09T14:07:32;37.10;49.30
53272;DHT22;39160;48.580;7.756;2023-07-09T14:12:23;36.50;50.10
53272;DHT22;39160;48.580;7.756;2023-07-09T14:17:14;36.20;50.50
53272;DHT22;39160;48.580;7.756;2023-07-09T14:22:34;35.90;50.80
53272;DHT22;39160;48.580;7.756;2023-07-09T14:27:26;35.70;52.10
53272;DHT22;39160;48.580;7.756;2023-07-09T14:32:35;35.40;51.60
53272;DHT22;39160;48.580;7.756;2023-07-09T14:37:27;35.20;52.20
53272;DHT22;39160;48.580;7.756;2023-07-09T14:42:18;35.00;52.30
53272;DHT22;39160;48.580;7.756;2023-07-09T14:47:18;34.90;52.50
53272;DHT22;39160;48.580;7.756;2023-07-09T14:52:15;34.80;52.80
53272;DHT22;39160;48.580;7.756;2023-07-09T14:57:17;34.70;52.90
53272;DHT22;39160;48.580;7.756;2023-07-09T15:02:35;34.70;52.90
53272;DHT22;39160;48.580;7.756;2023-07-09T15:07:26;34.60;53.20
53272;DHT22;39160;48.580;7.756;2023-07-09T15:12:25;34.50;53.20
53272;DHT22;39160;48.580;7.756;2023-07-09T15:17:16;34.50;53.30
53272;DHT22;39160;48.580;7.756;2023-07-09T15:22:19;34.50;53.20
53272;DHT22;39160;48.580;7.756;2023-07-09T15:27:12;34.70;52.90
53272;DHT22;39160;48.580;7.756;2023-07-09T15:32:03;35.10;52.60
53272;DHT22;39160;48.580;7.756;2023-07-09T15:36:54;35.50;52.30
53272;DHT22;39160;48.580;7.756;2023-07-09T15:41:45;36.50;51.70
53272;DHT22;39160;48.580;7.756;2023-07-09T15:46:36;37.60;51.50
53272;DHT22;39160;48.580;7.756;2023-07-09T15:51:26;37.70;50.50
53272;DHT22;39160;48.580;7.756;2023-07-09T15:56:28;38.80;49.90
53272;DHT22;39160;48.580;7.756;2023-07-09T16:01:20;41.20;48.20
53272;DHT22;39160;48.580;7.756;2023-07-09T16:06:11;42.80;47.30
53272;DHT22;39160;48.580;7.756;2023-07-09T16:11:09;43.70;46.30
53272;DHT22;39160;48.580;7.756;2023-07-09T16:16:03;42.00;46.80
53272;DHT22;39160;48.580;7.756;2023-07-09T16:20:54;42.50;46.70
53272;DHT22;39160;48.580;7.756;2023-07-09T16:25:47;44.70;45.30
53272;DHT22;39160;48.580;7.756;2023-07-09T16:30:38;44.60;44.80
53272;DHT22;39160;48.580;7.756;2023-07-09T16:35:29;46.30;43.70
53272;DHT22;39160;48.580;7.756;2023-07-09T16:40:26;45.40;43.90
53272;DHT22;39160;48.580;7.756;2023-07-09T16:45:19;45.70;43.30
53272;DHT22;39160;48.580;7.756;2023-07-09T16:50:22;46.80;42.60
53272;DHT22;39160;48.580;7.756;2023-07-09T16:55:25;47.60;41.60
53272;DHT22;39160;48.580;7.756;2023-07-09T17:00:27;46.10;42.20
53272;DHT22;39160;48.580;7.756;2023-07-09T17:05:18;45.40;42.40
53272;DHT22;39160;48.580;7.756;2023-07-09T17:10:11;45.90;41.90
53272;DHT22;39160;48.580;7.756;2023-07-09T17:15:24;45.10;42.20
53272;DHT22;39160;48.580;7.756;2023-07-09T17:20:16;45.70;41.00
53272;DHT22;39160;48.580;7.756;2023-07-09T17:25:34;44.10;42.10
53272;DHT22;39160;48.580;7.756;2023-07-09T17:30:26;43.40;41.70
53272;DHT22;39160;48.580;7.756;2023-07-09T17:35:17;43.30;41.90
53272;DHT22;39160;48.580;7.756;2023-07-09T17:40:25;41.10;42.90
53272;DHT22;39160;48.580;7.756;2023-07-09T17:45:16;39.50;43.70
53272;DHT22;39160;48.580;7.756;2023-07-09T17:50:18;38.70;43.80
53272;DHT22;39160;48.580;7.756;2023-07-09T17:55:11;38.10;44.00
53272;DHT22;39160;48.580;7.756;2023-07-09T18:00:02;37.70;44.30
53272;DHT22;39160;48.580;7.756;2023-07-09T18:04:53;37.40;44.50
53272;DHT22;39160;48.580;7.756;2023-07-09T18:09:45;37.30;44.60
53272;DHT22;39160;48.580;7.756;2023-07-09T18:14:37;37.10;45.10
53272;DHT22;39160;48.580;7.756;2023-07-09T18:19:28;37.10;45.40
53272;DHT22;39160;48.580;7.756;2023-07-09T18:24:19;36.90;45.60
53272;DHT22;39160;48.580;7.756;2023-07-09T18:29:42;36.80;46.10
53272;DHT22;39160;48.580;7.756;2023-07-09T18:34:32;36.70;46.70
53272;DHT22;39160;48.580;7.756;2023-07-09T18:39:24;36.70;47.00
53272;DHT22;39160;48.580;7.756;2023-07-09T18:44:21;36.40;47.40
53272;DHT22;39160;48.580;7.756;2023-07-09T18:49:11;36.10;48.20
53272;DHT22;39160;48.580;7.756;2023-07-09T18:54:17;35.90;48.60
53272;DHT22;39160;48.580;7.756;2023-07-09T18:59:17;35.70;49.30
53272;DHT22;39160;48.580;7.756;2023-07-09T19:04:17;35.50;49.70
53272;DHT22;39160;48.580;7.756;2023-07-09T19:09:15;35.30;50.10
53272;DHT22;39160;48.580;7.756;2023-07-09T19:14:06;35.20;50.30
53272;DHT22;39160;48.580;7.756;2023-07-09T19:18:57;35.00;50.50
53272;DHT22;39160;48.580;7.756;2023-07-09T19:23:47;34.90;50.90
53272;DHT22;39160;48.580;7.756;2023-07-09T19:28:38;34.70;51.20
53272;DHT22;39160;48.580;7.756;2023-07-09T19:33:37;34.50;51.50
53272;DHT22;39160;48.580;7.756;2023-07-09T19:38:28;34.40;51.80
53272;DHT22;39160;48.580;7.756;2023-07-09T19:43:19;34.30;52.20
53272;DHT22;39160;48.580;7.756;2023-07-09T19:48:15;34.20;52.60
53272;DHT22;39160;48.580;7.756;2023-07-09T19:53:20;34.10;53.00
53272;DHT22;39160;48.580;7.756;2023-07-09T19:58:11;34.00;53.40
53272;DHT22;39160;48.580;7.756;2023-07-09T20:03:02;34.00;53.40
53272;DHT22;39160;48.580;7.756;2023-07-09T20:07:56;33.90;53.90
53272;DHT22;39160;48.580;7.756;2023-07-09T20:12:50;33.80;53.90
53272;DHT22;39160;48.580;7.756;2023-07-09T20:17:41;33.80;53.80
53272;DHT22;39160;48.580;7.756;2023-07-09T20:22:32;33.70;53.80
53272;DHT22;39160;48.580;7.756;2023-07-09T20:27:23;33.70;54.10
53272;DHT22;39160;48.580;7.756;2023-07-09T20:32:16;33.50;54.20
53272;DHT22;39160;48.580;7.756;2023-07-09T20:37:09;33.50;54.40
53272;DHT22;39160;48.580;7.756;2023-07-09T20:42:00;33.50;54.70
53272;DHT22;39160;48.580;7.756;2023-07-09T20:46:52;33.40;54.80
53272;DHT22;39160;48.580;7.756;2023-07-09T20:51:42;33.20;55.00
53272;DHT22;39160;48.580;7.756;2023-07-09T20:56:33;33.10;55.00
53272;DHT22;39160;48.580;7.756;2023-07-09T21:01:24;33.10;55.30
53272;DHT22;39160;48.580;7.756;2023-07-09T21:06:16;32.90;55.40
53272;DHT22;39160;48.580;7.756;2023-07-09T21:11:07;32.80;55.50
53272;DHT22;39160;48.580;7.756;2023-07-09T21:15:58;32.60;56.00
53272;DHT22;39160;48.580;7.756;2023-07-09T21:20:49;32.50;56.10
53272;DHT22;39160;48.580;7.756;2023-07-09T21:25:40;32.30;56.70
53272;DHT22;39160;48.580;7.756;2023-07-09T21:30:31;32.20;57.10
53272;DHT22;39160;48.580;7.756;2023-07-09T21:35:24;32.20;57.20
53272;DHT22;39160;48.580;7.756;2023-07-09T21:40:34;32.10;57.60
53272;DHT22;39160;48.580;7.756;2023-07-09T21:45:34;32.00;57.90
53272;DHT22;39160;48.580;7.756;2023-07-09T21:50:25;31.60;58.40
53272;DHT22;39160;48.580;7.756;2023-07-09T21:55:21;31.60;58.90
53272;DHT22;39160;48.580;7.756;2023-07-09T22:05:18;31.00;60.00
53272;DHT22;39160;48.580;7.756;2023-07-09T22:10:12;30.80;60.60
53272;DHT22;39160;48.580;7.756;2023-07-09T22:15:13;30.80;60.80
53272;DHT22;39160;48.580;7.756;2023-07-09T22:20:05;30.70;61.30
53272;DHT22;39160;48.580;7.756;2023-07-09T22:24:57;30.50;61.50
53272;DHT22;39160;48.580;7.756;2023-07-09T22:29:48;30.30;62.10
53272;DHT22;39160;48.580;7.756;2023-07-09T22:34:40;30.20;62.60
53272;DHT22;39160;48.580;7.756;2023-07-09T22:39:30;30.30;63.10
53272;DHT22;39160;48.580;7.756;2023-07-09T22:44:21;30.10;63.80
53272;DHT22;39160;48.580;7.756;2023-07-09T22:49:16;29.90;64.90
53272;DHT22;39160;48.580;7.756;2023-07-09T22:54:10;30.00;65.10
53272;DHT22;39160;48.580;7.756;2023-07-09T22:59:01;30.10;65.60
53272;DHT22;39160;48.580;7.756;2023-07-09T23:03:51;30.10;65.90
53272;DHT22;39160;48.580;7.756;2023-07-09T23:08:43;30.00;66.40
53272;DHT22;39160;48.580;7.756;2023-07-09T23:13:35;29.90;66.90
53272;DHT22;39160;48.580;7.756;2023-07-09T23:18:26;30.00;67.10
53272;DHT22;39160;48.580;7.756;2023-07-09T23:23:17;29.80;67.40
53272;DHT22;39160;48.580;7.756;2023-07-09T23:28:09;29.90;67.70
53272;DHT22;39160;48.580;7.756;2023-07-09T23:33:29;30.10;67.90
53272;DHT22;39160;48.580;7.756;2023-07-09T23:38:20;30.10;68.40
53272;DHT22;39160;48.580;7.756;2023-07-09T23:43:15;30.10;68.10
53272;DHT22;39160;48.580;7.756;2023-07-09T23:48:22;30.00;68.30
53272;DHT22;39160;48.580;7.756;2023-07-09T23:53:22;29.90;68.90
53272;DHT22;39160;48.580;7.756;2023-07-09T23:58:23;29.90;69.10
